Time;durP1;ratioP1;P1;durP2;ratioP2;P2;SDS_P1;SDS_P2;PMS_P1;PMS_P2;Temp;Humidity;BMP_temperature;BMP_pressure;BME280_temperature;BME280_humidity;BME280_pressure;Samples;Min_cycle;Max_cycle;Signal;HPM_P1;HPM_P2
2022/05/04 00:00:07;;;;;;;10.88;6.40;;;;;;;9.26;75.94;99820.25;3111013;28;20061;-70
2022/05/04 00:01:39;;;;;;;17.58;7.40;;;;;;;9.28;75.68;99829.66;3110876;28;20749;-68
2022/05/04 00:03:13;;;;;;;12.98;7.03;;;;;;;9.25;75.71;99824.59;3111651;28;20053;-70
2022/05/04 00:04:45;;;;;;;10.25;6.97;;;;;;;9.23;75.65;99831.63;3110784;28;20311;-68
2022/05/04 00:06:17;;;;;;;14.60;6.40;;;;;;;9.20;75.58;99826.53;3107663;28;20216;-69
2022/05/04 00:07:49;;;;;;;8.40;5.93;;;;;;;9.20;75.45;99833.47;3111640;28;20556;-68
2022/05/04 00:09:21;;;;;;;8.85;6.22;;;;;;;8.95;75.18;99785.06;3111291;28;20434;-68
2022/05/04 00:10:53;;;;;;;9.10;6.65;;;;;;;9.19;75.30;99834.38;3111753;28;20554;-69
2022/05/04 00:12:26;;;;;;;9.82;5.93;;;;;;;9.19;74.97;99835.22;3110542;28;20533;-68
2022/05/04 00:13:59;;;;;;;13.63;7.35;;;;;;;9.20;75.12;99833.47;3110811;28;20061;-68
2022/05/04 00:15:31;;;;;;;17.02;7.63;;;;;;;9.19;75.51;99830.03;3110263;28;20057;-68
2022/05/04 00:17:04;;;;;;;19.85;8.23;;;;;;;9.08;75.45;99814.88;3110395;28;20057;-66
2022/05/04 00:18:36;;;;;;;12.90;9.27;;;;;;;9.17;75.47;99826.66;3110343;28;20057;-67
2022/05/04 00:20:09;;;;;;;17.63;10.43;;;;;;;8.91;75.64;99788.72;3107360;28;20119;-67
2022/05/04 00:21:41;;;;;;;17.02;11.02;;;;;;;9.07;75.90;99814.91;3110350;28;20057;-66
2022/05/04 00:23:13;;;;;;;16.52;11.00;;;;;;;8.96;76.10;99799.78;3110484;28;20049;-66
2022/05/04 00:24:46;;;;;;;18.42;11.15;;;;;;;8.70;76.08;99758.38;3110158;28;20060;-66
2022/05/04 00:26:17;;;;;;;21.42;12.52;;;;;;;9.07;76.38;99823.56;3120695;28;20084;-66
2022/05/04 00:27:50;;;;;;;22.45;11.70;;;;;;;9.04;76.80;99826.28;3120286;28;20068;-66
2022/05/04 00:29:23;;;;;;;22.42;11.73;;;;;;;9.00;76.71;99829.91;3120473;28;20057;-66
2022/05/04 00:30:55;;;;;;;19.17;12.00;;;;;;;8.82;77.13;99807.25;3120891;28;20053;-66
2022/05/04 00:32:27;;;;;;;18.33;11.05;;;;;;;8.86;77.47;99829.56;3120559;28;20046;-66
2022/05/04 00:33:59;;;;;;;15.60;10.65;;;;;;;8.82;77.37;99831.44;3120260;28;20060;-66
2022/05/04 00:35:31;;;;;;;20.30;11.05;;;;;;;8.76;77.32;99823.06;3120252;28;20443;-66
2022/05/04 00:37:03;;;;;;;15.23;9.98;;;;;;;8.78;77.41;99827.25;3121095;28;20053;-66
2022/05/04 00:38:35;;;;;;;16.35;9.65;;;;;;;8.71;77.26;99828.41;3120631;28;20555;-66
2022/05/04 00:40:07;;;;;;;14.73;9.52;;;;;;;8.62;77.50;99824.38;3120895;28;20057;-65
2022/05/04 00:41:39;;;;;;;17.30;9.45;;;;;;;8.61;77.40;99827.06;3120124;28;20441;-65
2022/05/04 00:43:21;;;;;;;15.68;9.68;;;;;;;8.54;77.62;99829.00;3120861;28;20053;-66
2022/05/04 00:44:54;;;;;;;14.70;9.50;;;;;;;8.47;77.44;99814.56;3120567;28;20084;-66
2022/05/04 00:46:26;;;;;;;19.55;9.98;;;;;;;8.49;77.57;99817.09;3120303;28;20169;-66
2022/05/04 00:47:58;;;;;;;16.73;9.00;;;;;;;8.45;77.44;99815.53;3120649;28;20049;-66
2022/05/04 00:49:30;;;;;;;15.85;9.75;;;;;;;8.37;77.66;99814.03;3120273;28;20444;-66
2022/05/04 00:51:02;;;;;;;20.85;10.73;;;;;;;8.33;77.91;99814.19;3120775;28;20423;-66
2022/05/04 00:52:34;;;;;;;15.93;10.35;;;;;;;8.25;78.08;99811.84;3120473;28;20054;-65
2022/05/04 00:54:07;;;;;;;17.55;9.25;;;;;;;8.21;78.39;99820.66;3120148;28;20053;-66
2022/05/04 00:55:39;;;;;;;17.20;9.97;;;;;;;8.16;78.34;99826.03;3120644;28;20077;-65
2022/05/04 00:57:13;;;;;;;14.95;8.98;;;;;;;8.03;78.27;99809.19;3109085;28;20710;-66
2022/05/04 00:58:57;;;;;;;;;;;;;;;8.06;78.52;99832.41;3118034;28;20135;-65
2022/05/04 01:00:29;;;;;;;19.65;8.90;;;;;;;8.04;78.36;99836.78;3108407;28;19925;-65
2022/05/04 01:02:01;;;;;;;19.98;9.68;;;;;;;8.08;78.32;99841.00;3119690;28;20089;-66
2022/05/04 01:03:33;;;;;;;15.45;8.70;;;;;;;8.10;78.36;99839.16;3119234;28;20061;-66
2022/05/04 01:05:05;;;;;;;16.17;9.20;;;;;;;8.01;78.23;99825.69;3120556;28;20046;-66
2022/05/04 01:06:37;;;;;;;19.42;10.25;;;;;;;7.98;78.46;99832.66;3110106;28;20064;-66
2022/05/04 01:08:07;;;;;;;17.30;9.63;;;;;;;8.05;78.31;99843.69;3111837;28;20148;-66
2022/05/04 01:09:39;;;;;;;14.70;9.07;;;;;;;8.00;78.51;99842.16;3120412;28;20434;-67
2022/05/04 01:11:11;;;;;;;17.75;9.73;;;;;;;7.98;78.75;99848.22;3120306;28;20466;-67
2022/05/04 01:12:47;;;;;;;16.60;9.70;;;;;;;7.95;78.63;99843.13;3121870;28;20056;-67
2022/05/04 01:14:19;;;;;;;16.40;9.82;;;;;;;7.91;78.87;99849.34;3122555;28;20085;-66
2022/05/04 01:15:52;;;;;;;18.13;9.27;;;;;;;7.88;78.81;99841.66;3122887;28;20041;-68
2022/05/04 01:17:24;;;;;;;17.05;9.75;;;;;;;7.74;79.07;99818.78;3122958;28;20049;-68
2022/05/04 01:18:57;;;;;;;17.42;10.30;;;;;;;7.80;79.06;99843.66;3122631;28;20049;-68
2022/05/04 01:20:28;;;;;;;21.45;9.82;;;;;;;7.75;79.47;99835.19;3122862;28;20131;-67
2022/05/04 01:22:04;;;;;;;18.15;9.60;;;;;;;7.73;79.39;99837.00;3122828;28;20052;-68
2022/05/04 01:23:36;;;;;;;14.80;9.55;;;;;;;7.70;79.61;99831.91;3122375;28;20049;-68
2022/05/04 01:25:09;;;;;;;16.98;9.65;;;;;;;7.65;79.67;99831.19;3122745;28;20119;-68
2022/05/04 01:26:41;;;;;;;17.13;9.95;;;;;;;7.63;79.76;99830.38;3122629;28;20061;-67
2022/05/04 01:28:13;;;;;;;15.38;9.23;;;;;;;7.60;79.92;99830.50;3122528;28;20697;-67
2022/05/04 01:29:46;;;;;;;15.60;8.82;;;;;;;7.57;80.09;99831.44;3122722;28;20053;-68
2022/05/04 01:31:18;;;;;;;;;;;;;;;7.58;80.05;99827.13;3122837;28;20136;-68
2022/05/04 01:32:50;;;;;;;15.35;8.95;;;;;;;7.59;79.90;99821.03;3122904;28;19978;-68
2022/05/04 01:34:26;;;;;;;17.08;8.85;;;;;;;7.65;79.67;99823.44;3122713;28;20057;-68
2022/05/04 01:35:58;;;;;;;17.23;8.63;;;;;;;7.64;79.87;99821.75;3122018;28;20859;-68
2022/05/04 01:37:30;;;;;;;14.43;9.23;;;;;;;7.52;79.90;99805.69;3122835;28;20053;-67
2022/05/04 01:39:02;;;;;;;12.02;8.38;;;;;;;7.39;79.88;99768.09;3122703;28;20063;-67
2022/05/04 01:40:34;;;;;;;16.15;9.85;;;;;;;7.66;79.86;99814.75;3122334;28;20057;-68
2022/05/04 01:42:09;;;;;;;15.77;9.02;;;;;;;7.70;79.71;99811.16;3122546;28;20111;-69
2022/05/04 01:43:41;;;;;;;17.33;9.02;;;;;;;7.71;79.66;99811.09;3122481;28;20408;-68
2022/05/04 01:45:13;;;;;;;16.33;8.85;;;;;;;7.73;79.57;99816.25;3122236;28;20507;-68
2022/05/04 01:46:44;;;;;;;16.85;9.45;;;;;;;7.74;79.65;99812.75;3122681;28;20061;-68
2022/05/04 01:48:16;;;;;;;14.75;8.45;;;;;;;7.82;79.58;99823.72;3121964;28;20522;-69
2022/05/04 01:49:48;;;;;;;15.30;9.05;;;;;;;7.86;79.36;99822.69;3122794;28;20107;-68
2022/05/04 01:51:20;;;;;;;15.35;8.10;;;;;;;7.87;79.19;99824.41;3122333;28;20420;-68
2022/05/04 01:52:53;;;;;;;16.58;8.57;;;;;;;7.92;79.03;99824.25;3122319;28;20049;-68
2022/05/04 01:54:26;;;;;;;13.95;8.00;;;;;;;7.97;78.90;99838.75;3122462;28;20111;-68
2022/05/04 01:56:01;;;;;;;16.55;8.68;;;;;;;7.97;78.76;99832.72;3120605;28;20054;-68
2022/05/04 01:57:33;;;;;;;11.77;7.65;;;;;;;7.89;78.81;99809.63;3110105;28;20053;-68
2022/05/04 01:59:05;;;;;;;16.20;8.02;;;;;;;8.05;78.61;99829.88;3112387;28;20130;-68
2022/05/04 02:00:37;;;;;;;17.40;8.32;;;;;;;8.03;78.52;99824.72;3119182;28;20412;-68
2022/05/04 02:02:10;;;;;;;15.48;8.38;;;;;;;8.11;78.37;99832.25;3122356;28;20057;-68
2022/05/04 02:03:42;;;;;;;13.30;7.60;;;;;;;8.14;78.33;99825.22;3119606;28;20072;-68
2022/05/04 02:05:14;;;;;;;15.23;8.80;;;;;;;8.15;78.29;99818.28;3122189;28;20061;-68
2022/05/04 02:06:47;;;;;;;11.68;7.50;;;;;;;7.84;78.16;99770.06;3122364;28;20050;-67
2022/05/04 02:08:20;;;;;;;12.48;7.45;;;;;;;8.13;78.21;99810.56;3122149;28;20535;-67
2022/05/04 02:09:52;;;;;;;11.60;7.32;;;;;;;8.17;78.12;99819.06;3112327;28;20076;-67
2022/05/04 02:11:25;;;;;;;10.85;7.38;;;;;;;8.14;78.46;99816.59;3122121;28;20061;-66
2022/05/04 02:12:56;;;;;;;17.07;7.60;;;;;;;8.09;78.16;99818.50;3122112;28;20049;-66
2022/05/04 02:14:28;;;;;;;10.38;7.00;;;;;;;8.13;78.18;99822.66;3122004;28;20057;-66
2022/05/04 02:16:00;;;;;;;13.38;7.03;;;;;;;8.16;77.91;99830.34;3122018;28;20046;-66
2022/05/04 02:17:32;;;;;;;10.98;6.95;;;;;;;8.16;77.91;99825.16;3121744;28;20588;-66
2022/05/04 02:19:04;;;;;;;10.23;6.75;;;;;;;8.20;77.78;99827.59;3122181;28;20442;-67
2022/05/04 02:20:36;;;;;;;11.90;7.18;;;;;;;8.21;77.68;99823.25;3121617;28;20082;-67
2022/05/04 02:22:08;;;;;;;12.70;6.80;;;;;;;8.16;77.41;99815.66;3120255;28;20060;-67
2022/05/04 02:23:42;;;;;;;11.75;6.88;;;;;;;8.28;77.56;99834.25;3115406;28;20104;-67
2022/05/04 02:25:14;;;;;;;10.30;6.82;;;;;;;8.17;77.42;99816.50;3121451;28;20068;-67
2022/05/04 02:26:45;;;;;;;11.07;6.28;;;;;;;8.25;77.47;99829.16;3121855;28;20522;-67
2022/05/04 02:28:18;;;;;;;10.20;6.53;;;;;;;8.19;77.38;99825.03;3122274;28;20088;-67
2022/05/04 02:29:50;;;;;;;13.65;6.45;;;;;;;7.88;77.40;99787.22;3121524;28;20045;-67
2022/05/04 02:31:21;;;;;;;8.88;6.10;;;;;;;8.15;77.12;99828.66;3122173;28;20056;-67
2022/05/04 02:32:53;;;;;;;9.70;5.82;;;;;;;8.10;77.36;99825.34;3121903;28;20474;-67
2022/05/04 02:34:25;;;;;;;9.70;6.07;;;;;;;8.18;77.00;99838.91;3121347;28;20066;-67
2022/05/04 02:37:54;;;;;;;11.05;6.38;;;;;;;8.19;76.94;99835.41;3121907;28;20049;-67
2022/05/04 02:39:28;;;;;;;14.75;6.25;;;;;;;8.21;76.80;99836.22;3121763;28;20136;-67
2022/05/04 02:41:00;;;;;;;9.30;6.22;;;;;;;8.05;76.99;99816.91;3121697;28;20057;-67
2022/05/04 02:42:31;;;;;;;9.10;6.13;;;;;;;7.76;76.88;99769.50;3121677;28;20060;-67
2022/05/04 02:44:03;;;;;;;9.05;5.68;;;;;;;7.92;76.89;99804.34;3121860;28;20129;-67
2022/05/04 02:45:35;;;;;;;8.63;5.35;;;;;;;8.02;77.11;99827.41;3121256;28;20053;-67
2022/05/04 02:47:07;;;;;;;7.97;5.07;;;;;;;7.92;77.30;99827.69;3121869;28;20049;-67
2022/05/04 02:48:39;;;;;;;7.65;5.32;;;;;;;7.82;77.01;99808.16;3121148;28;20065;-67
2022/05/04 02:50:11;;;;;;;8.13;5.30;;;;;;;7.72;77.14;99804.19;3111663;28;20458;-67
2022/05/04 02:51:44;;;;;;;7.70;5.05;;;;;;;7.99;76.90;99833.53;3121616;28;20115;-66
2022/05/04 02:53:16;;;;;;;8.30;5.07;;;;;;;7.99;76.95;99828.34;3121339;28;20061;-66
2022/05/04 02:54:49;;;;;;;8.20;5.20;;;;;;;7.96;76.86;99829.28;3121561;28;20885;-67
2022/05/04 02:56:21;;;;;;;14.05;5.55;;;;;;;8.05;76.98;99832.47;3121277;28;20300;-67
2022/05/04 02:57:53;;;;;;;8.75;5.18;;;;;;;8.11;76.79;99837.44;3121171;28;20056;-68
2022/05/04 02:59:25;;;;;;;10.65;5.03;;;;;;;8.12;76.50;99845.16;3121720;28;20056;-68
2022/05/04 03:02:26;;;;;;;7.18;4.95;;;;;;;8.16;76.37;99846.78;3121600;28;20053;-68
2022/05/04 03:02:59;;;;;;;8.27;4.10;;;;;;;8.16;76.30;99845.91;3121763;28;20052;-68
2022/05/04 03:04:31;;;;;;;8.40;5.15;;;;;;;8.17;76.30;99843.28;3121526;28;20057;-68
2022/05/04 03:06:03;;;;;;;8.20;5.28;;;;;;;8.19;76.25;99838.00;3119747;28;20041;-68
2022/05/04 03:07:35;;;;;;;15.35;5.75;;;;;;;8.20;76.06;99847.50;3121243;28;20049;-68
2022/05/04 03:09:08;;;;;;;10.05;5.20;;;;;;;8.22;76.17;99850.88;3121523;28;20585;-68
2022/05/04 03:12:27;;;;;;;8.68;5.25;;;;;;;8.19;76.09;99841.47;3121273;28;20050;-68
2022/05/04 03:13:59;;;;;;;10.70;5.55;;;;;;;8.22;76.03;99843.09;3121020;28;20053;-68
2022/05/04 03:15:31;;;;;;;9.02;5.20;;;;;;;8.15;75.92;99836.44;3121068;28;20064;-68
2022/05/04 03:17:02;;;;;;;9.77;5.65;;;;;;;8.23;75.77;99847.41;3121086;28;20049;-68
2022/05/04 03:18:34;;;;;;;9.55;5.15;;;;;;;8.20;75.94;99847.50;3121213;28;20510;-69
2022/05/04 03:20:07;;;;;;;11.25;5.20;;;;;;;8.23;75.78;99857.78;3121182;28;20075;-69
2022/05/04 03:21:38;;;;;;;8.65;5.10;;;;;;;8.24;75.72;99856.03;3121275;28;20115;-69
2022/05/04 03:23:10;;;;;;;10.82;5.15;;;;;;;8.24;75.87;99856.03;3121446;28;20049;-67
2022/05/04 03:24:42;;;;;;;10.38;5.75;;;;;;;8.24;75.63;99856.88;3121023;28;20140;-67
2022/05/04 03:26:15;;;;;;;15.85;6.60;;;;;;;8.25;75.76;99860.31;3121164;28;20056;-67
2022/05/04 03:27:47;;;;;;;8.38;5.10;;;;;;;7.95;75.86;99814.59;3121353;28;20049;-67
2022/05/04 03:29:19;;;;;;;9.60;4.80;;;;;;;8.21;75.62;99857.81;3120850;28;20057;-67
2022/05/04 03:30:50;;;;;;;10.15;4.60;;;;;;;8.25;75.43;99865.50;3121230;28;20053;-66
2022/05/04 03:32:22;;;;;;;11.48;5.28;;;;;;;8.25;75.46;99861.13;3121282;28;20053;-67
2022/05/04 03:33:53;;;;;;;13.27;6.22;;;;;;;8.26;75.37;99859.41;3120845;28;20061;-67
2022/05/04 03:35:25;;;;;;;9.60;5.70;;;;;;;8.25;75.54;99871.53;3120863;28;20053;-66
2022/05/04 03:36:59;;;;;;;10.18;4.93;;;;;;;8.24;75.23;99869.84;3121308;28;20411;-67
2022/05/04 03:38:29;;;;;;;9.85;5.57;;;;;;;8.16;75.31;99853.69;3121037;28;20076;-67
2022/05/04 03:40:01;;;;;;;8.88;5.78;;;;;;;8.20;75.33;99852.69;3121250;28;20057;-67
2022/05/04 03:41:34;;;;;;;16.73;6.97;;;;;;;8.25;75.41;99865.50;3120679;28;20049;-67
2022/05/04 03:43:06;;;;;;;9.90;5.47;;;;;;;8.15;75.30;99859.78;3121307;28;20053;-67
2022/05/04 03:44:38;;;;;;;8.77;5.60;;;;;;;8.13;75.56;99862.44;3121074;28;20056;-67
2022/05/04 03:46:15;;;;;;;7.95;5.38;;;;;;;8.04;75.61;99854.94;3120742;28;20096;-67
2022/05/04 03:47:47;;;;;;;11.60;6.28;;;;;;;8.09;75.82;99865.19;3108901;28;20050;-66
2022/05/04 03:49:20;;;;;;;11.48;6.20;;;;;;;7.63;75.84;99799.28;3108668;28;20076;-66
2022/05/04 03:50:52;;;;;;;11.32;6.10;;;;;;;8.05;75.85;99871.38;3110845;28;20478;-67
2022/05/04 03:52:24;;;;;;;14.93;6.50;;;;;;;7.95;75.86;99855.25;3120669;28;20049;-67
2022/05/04 03:53:56;;;;;;;10.65;6.03;;;;;;;8.07;75.65;99874.75;3120265;28;20061;-66
2022/05/04 03:55:28;;;;;;;13.65;6.55;;;;;;;8.01;75.88;99875.78;3120829;28;20111;-66
2022/05/04 03:57:01;;;;;;;11.32;6.82;;;;;;;8.03;75.91;99875.75;3120796;28;20041;-66
2022/05/04 03:58:33;;;;;;;13.65;7.00;;;;;;;8.04;75.88;99873.09;3120829;28;20112;-65
2022/05/04 04:00:09;;;;;;;19.17;6.75;;;;;;;7.96;75.53;99860.41;3120973;28;20076;-66
2022/05/04 04:01:41;;;;;;;12.52;7.18;;;;;;;8.01;75.95;99888.75;3120607;28;20451;-66
2022/05/04 04:03:13;;;;;;;17.15;7.32;;;;;;;8.01;75.99;99878.38;3120801;28;20118;-67
2022/05/04 04:04:45;;;;;;;12.93;6.85;;;;;;;7.94;75.89;99877.75;3116583;28;20052;-65
2022/05/04 04:06:16;;;;;;;12.63;7.68;;;;;;;7.97;76.10;99885.44;3115121;28;20041;-65
2022/05/04 04:07:48;;;;;;;13.50;7.65;;;;;;;7.94;76.01;99872.56;3120924;28;20609;-65
2022/05/04 04:09:20;;;;;;;15.18;6.93;;;;;;;8.03;76.06;99880.94;3121113;28;20053;-65
2022/05/04 04:10:52;;;;;;;13.45;6.75;;;;;;;7.81;75.67;99852.28;3120532;28;20081;-68
2022/05/04 04:12:26;;;;;;;12.32;6.80;;;;;;;8.06;75.63;99889.47;3120666;28;20868;-66
2022/05/04 04:13:58;;;;;;;14.50;7.38;;;;;;;8.05;75.59;99895.56;3118817;28;20053;-68
2022/05/04 04:15:30;;;;;;;12.75;6.57;;;;;;;8.11;75.70;99895.34;3120766;28;20053;-69
2022/05/04 04:17:02;;;;;;;13.70;7.53;;;;;;;8.13;75.65;99890.09;3121020;28;20045;-68
2022/05/04 04:18:34;;;;;;;16.50;7.25;;;;;;;8.15;75.49;99901.28;3120615;28;20057;-68
2022/05/04 04:21:56;;;;;;;12.63;7.35;;;;;;;8.16;75.37;99908.16;3120772;28;20045;-68
2022/05/04 04:23:27;;;;;;;20.10;7.55;;;;;;;8.17;75.38;99904.69;3120529;28;20057;-66
2022/05/04 04:24:59;;;;;;;16.67;6.40;;;;;;;8.19;75.06;99902.88;3121020;28;20466;-68
2022/05/04 04:26:30;;;;;;;11.93;7.15;;;;;;;8.23;75.10;99904.47;3120339;28;20045;-68
2022/05/04 04:28:03;;;;;;;15.07;7.20;;;;;;;8.27;75.11;99905.22;3120726;28;20053;-67
2022/05/04 04:29:35;;;;;;;17.50;6.88;;;;;;;8.24;74.61;99895.78;3120508;28;20053;-68
2022/05/04 04:31:09;;;;;;;17.60;7.13;;;;;;;8.28;74.64;99906.91;3120436;28;20076;-65
2022/05/04 04:32:41;;;;;;;11.60;6.28;;;;;;;8.27;74.62;99906.06;3120543;28;20080;-65
2022/05/04 04:34:13;;;;;;;13.55;6.22;;;;;;;8.26;74.41;99903.53;3120477;28;20525;-65
2022/05/04 04:35:44;;;;;;;11.27;6.07;;;;;;;8.19;74.31;99908.06;3120152;28;20053;-66
2022/05/04 04:37:16;;;;;;;11.48;5.85;;;;;;;8.24;74.29;99906.16;3120403;28;20045;-67
2022/05/04 04:38:48;;;;;;;14.98;6.20;;;;;;;8.23;74.25;99907.06;3120734;28;20522;-65
2022/05/04 04:40:19;;;;;;;16.33;6.50;;;;;;;8.04;74.38;99865.31;3120169;28;20053;-65
2022/05/04 04:41:50;;;;;;;11.77;6.50;;;;;;;8.29;74.37;99912.03;3120698;28;20180;-67
2022/05/04 04:43:23;;;;;;;12.00;6.90;;;;;;;8.33;74.18;99899.81;3120635;28;20057;-65
2022/05/04 04:44:56;;;;;;;11.90;6.07;;;;;;;8.35;74.30;99895.44;3120424;28;20041;-66
2022/05/04 04:46:29;;;;;;;;;;;;;;;8.35;74.18;99895.44;3120502;28;20140;-68
2022/05/04 04:48:02;;;;;;;13.73;6.63;;;;;;;8.34;74.02;99902.38;3121869;28;20381;-70
2022/05/04 04:49:34;;;;;;;12.35;6.15;;;;;;;8.36;74.20;99900.53;3122512;28;20053;-71
2022/05/04 04:51:07;;;;;;;9.75;5.65;;;;;;;8.34;74.02;99885.94;3122595;28;20061;-70
2022/05/04 04:52:40;;;;;;;20.25;9.43;;;;;;;8.24;73.79;99863.81;3122555;28;20053;-73
2022/05/04 04:54:12;;;;;;;10.95;6.05;;;;;;;8.49;73.75;99897.56;3122888;28;20052;-75
2022/05/04 04:55:44;;;;;;;9.70;5.70;;;;;;;8.54;73.44;99899.09;3122201;28;20053;-74
2022/05/04 04:57:17;;;;;;;12.38;5.43;;;;;;;8.58;73.40;99900.69;3123028;28;20046;-70
2022/05/04 04:58:51;;;;;;;12.65;5.70;;;;;;;8.65;73.01;99893.53;3122723;28;20481;-69
2022/05/04 05:00:24;;;;;;;15.40;5.75;;;;;;;8.65;73.20;99880.53;3122364;28;20095;-70
2022/05/04 05:01:57;;;;;;;12.93;5.65;;;;;;;8.76;72.86;99893.16;3122449;28;20476;-69
2022/05/04 05:03:29;;;;;;;14.43;7.45;;;;;;;8.81;72.81;99888.63;3122587;28;20060;-70
2022/05/04 05:05:01;;;;;;;16.15;5.40;;;;;;;8.85;72.79;99888.47;3122694;28;20511;-68
2022/05/04 05:06:33;;;;;;;9.68;5.13;;;;;;;8.93;72.45;99895.13;3122580;28;20076;-66
2022/05/04 05:08:06;;;;;;;10.00;5.50;;;;;;;8.99;72.41;99892.28;3122480;28;20048;-66
2022/05/04 05:09:39;;;;;;;11.30;5.10;;;;;;;9.04;72.05;99887.78;3122842;28;20049;-65
2022/05/04 05:11:11;;;;;;;10.68;5.10;;;;;;;9.08;71.85;99886.75;3122739;28;20053;-68
2022/05/04 05:12:43;;;;;;;17.83;7.10;;;;;;;9.12;71.67;99896.13;3123540;28;20045;-67
2022/05/04 05:16:12;;;;;;;8.18;5.00;;;;;;;9.19;71.33;99884.59;3122380;28;20042;-67
2022/05/04 05:17:44;;;;;;;14.93;5.13;;;;;;;9.21;71.17;99888.00;3122435;28;20048;-68
2022/05/04 05:19:17;;;;;;;11.40;5.13;;;;;;;9.28;70.71;99891.19;3122433;28;20192;-69
2022/05/04 05:20:49;;;;;;;9.15;4.43;;;;;;;9.34;70.79;99897.00;3122302;28;20107;-68
2022/05/04 05:22:21;;;;;;;13.23;4.88;;;;;;;9.33;70.65;99884.91;3122167;28;20099;-67
2022/05/04 05:23:53;;;;;;;9.70;4.88;;;;;;;9.37;70.27;99884.78;3121910;28;20045;-67
2022/05/04 05:25:24;;;;;;;19.77;11.18;;;;;;;9.44;70.61;99901.88;3121953;28;20049;-68
2022/05/04 05:26:56;;;;;;;15.50;6.53;;;;;;;9.50;70.54;99899.03;3124404;28;20110;-66
2022/05/04 05:28:28;;;;;;;10.70;5.30;;;;;;;9.49;70.48;99890.34;3121788;28;20471;-71
2022/05/04 05:30:00;;;;;;;8.20;4.75;;;;;;;9.65;70.16;99897.56;3110404;28;20046;-70
2022/05/04 05:31:32;;;;;;;9.10;5.35;;;;;;;9.75;70.17;99901.47;3121685;28;20453;-70
2022/05/04 05:33:04;;;;;;;10.98;5.30;;;;;;;9.83;69.84;99899.44;3122252;28;20430;-72
2022/05/04 05:34:36;;;;;;;11.77;5.03;;;;;;;9.91;70.10;99902.56;3122275;28;20052;-66
2022/05/04 05:36:08;;;;;;;13.07;6.38;;;;;;;9.82;69.69;99866.53;3122471;28;20045;-66
2022/05/04 05:37:40;;;;;;;10.43;5.38;;;;;;;10.10;69.73;99902.66;3122423;28;20103;-66
2022/05/04 05:39:12;;;;;;;14.38;5.47;;;;;;;10.18;69.27;99907.53;3122818;28;20660;-68
2022/05/04 05:40:44;;;;;;;11.98;5.60;;;;;;;10.31;69.68;99915.72;3128036;28;20057;-70
2022/05/04 05:42:16;;;;;;;17.13;5.30;;;;;;;10.41;69.43;99914.41;3122639;28;20061;-69
2022/05/04 05:43:48;;;;;;;13.90;5.63;;;;;;;10.53;69.06;99913.03;3122208;28;20414;-67
2022/05/04 05:45:21;;;;;;;9.65;5.70;;;;;;;10.67;68.85;99918.47;3118328;28;20053;-65
2022/05/04 05:46:53;;;;;;;13.88;6.07;;;;;;;10.80;68.66;99924.03;3122467;28;20107;-68
2022/05/04 05:48:25;;;;;;;12.10;5.03;;;;;;;10.87;68.57;99904.59;3122148;28;20053;-67
2022/05/04 05:49:56;;;;;;;17.90;4.65;;;;;;;11.05;68.43;99913.34;3122259;28;20049;-66
2022/05/04 05:51:28;;;;;;;9.90;5.18;;;;;;;11.15;68.48;99905.03;3122250;28;20055;-63
2022/05/04 05:52:59;;;;;;;17.77;6.22;;;;;;;11.12;67.75;99888.66;3122499;28;21070;-67
2022/05/04 05:54:32;;;;;;;13.85;5.10;;;;;;;11.01;67.83;99850.09;3122002;28;20049;-67
2022/05/04 05:56:05;;;;;;;9.30;4.90;;;;;;;11.43;67.40;99905.50;3122008;28;20049;-66
2022/05/04 05:57:37;;;;;;;10.38;4.43;;;;;;;11.49;67.13;99902.63;3121847;28;20503;-66
2022/05/04 05:59:09;;;;;;;7.40;4.30;;;;;;;11.55;67.11;99902.31;3120854;28;20580;-66
2022/05/04 06:00:42;;;;;;;5.50;3.40;;;;;;;11.54;66.38;99893.66;3119198;28;20103;-66
2022/05/04 06:02:14;;;;;;;9.35;3.50;;;;;;;11.66;66.13;99905.28;3121863;28;20057;-66
2022/05/04 06:03:46;;;;;;;9.65;3.97;;;;;;;11.66;65.98;99892.22;3122439;28;20049;-67
2022/05/04 06:05:18;;;;;;;8.82;4.07;;;;;;;11.77;65.83;99903.00;3121592;28;20488;-65
2022/05/04 06:06:49;;;;;;;9.23;4.05;;;;;;;11.83;65.58;99907.03;3121889;28;20160;-66
2022/05/04 06:08:22;;;;;;;10.75;4.10;;;;;;;11.84;64.84;99904.38;3119215;28;20103;-68
2022/05/04 06:09:54;;;;;;;6.60;3.90;;;;;;;11.84;64.77;99907.00;3120551;28;20049;-67
2022/05/04 06:11:26;;;;;;;7.15;3.50;;;;;;;11.87;64.52;99902.59;3121912;28;20057;-67
2022/05/04 06:12:59;;;;;;;7.05;3.72;;;;;;;11.88;64.13;99910.31;3122327;28;20111;-67
2022/05/04 06:14:31;;;;;;;8.35;4.32;;;;;;;11.91;64.13;99909.31;3122176;28;20045;-70
2022/05/04 06:16:04;;;;;;;10.02;3.90;;;;;;;11.91;64.00;99910.16;3121666;28;20049;-70
2022/05/04 06:17:36;;;;;;;8.85;4.07;;;;;;;11.88;63.45;99904.25;3121917;28;20055;-69
2022/05/04 06:19:08;;;;;;;6.93;3.65;;;;;;;11.95;63.77;99909.13;3121853;28;20046;-68
2022/05/04 06:20:40;;;;;;;12.45;3.80;;;;;;;11.96;63.44;99905.56;3121914;28;20168;-67
2022/05/04 06:22:12;;;;;;;7.72;3.80;;;;;;;11.83;63.36;99888.78;3121914;28;20107;-70
2022/05/04 06:23:44;;;;;;;8.77;4.43;;;;;;;11.94;63.29;99907.41;3121435;28;20108;-73
2022/05/04 06:25:16;;;;;;;8.57;4.05;;;;;;;12.01;63.00;99911.41;3121757;28;20116;-70
2022/05/04 06:26:47;;;;;;;5.72;3.55;;;;;;;12.03;63.30;99914.78;3122176;28;20053;-70
2022/05/04 06:28:19;;;;;;;7.82;4.20;;;;;;;11.84;63.02;99870.47;3121339;28;20049;-72
2022/05/04 06:35:20;;;;;;;8.35;3.53;;;;;;;12.24;62.86;99912.03;3121640;28;20057;-73
2022/05/04 06:36:52;;;;;;;64.85;38.63;;;;;;;12.20;62.77;99894.84;3121553;28;20103;-72
2022/05/04 06:38:24;;;;;;;59.60;32.53;;;;;;;12.33;62.73;99908.94;3121073;28;20065;-74
2022/05/04 06:39:56;;;;;;;14.05;4.82;;;;;;;12.34;62.29;99915.88;3121339;28;20119;-71
2022/05/04 06:41:28;;;;;;;9.55;4.30;;;;;;;12.40;62.71;99910.34;3121682;28;20513;-67
2022/05/04 06:43:00;;;;;;;6.57;3.25;;;;;;;12.40;61.75;99907.72;3121504;28;20109;-67
2022/05/04 06:44:32;;;;;;;8.20;3.58;;;;;;;12.39;61.77;99905.19;3121295;28;20149;-70
2022/05/04 06:46:04;;;;;;;4.85;3.50;;;;;;;12.45;61.39;99905.75;3121119;28;20057;-71
2022/05/04 06:47:37;;;;;;;6.57;3.15;;;;;;;12.38;61.17;99901.72;3121726;28;20529;-69
2022/05/04 06:49:10;;;;;;;6.75;3.50;;;;;;;12.37;61.04;99913.13;3121660;28;20494;-69
2022/05/04 06:50:42;;;;;;;10.25;3.90;;;;;;;12.38;61.25;99904.34;3121595;28;20045;-68
2022/05/04 06:52:14;;;;;;;12.07;4.28;;;;;;;12.46;61.18;99914.41;3121474;28;20057;-69
2022/05/04 06:53:46;;;;;;;12.85;3.55;;;;;;;12.36;60.82;99895.72;3121442;28;20061;-71
2022/05/04 06:55:18;;;;;;;6.75;3.53;;;;;;;12.44;60.95;99917.09;3120968;28;20443;-71
2022/05/04 06:56:50;;;;;;;7.05;3.70;;;;;;;12.46;61.05;99911.81;3121418;28;20061;-70
2022/05/04 06:58:22;;;;;;;7.22;3.95;;;;;;;12.46;61.11;99907.41;3121670;28;20041;-70
2022/05/04 06:59:54;;;;;;;9.63;4.03;;;;;;;12.53;61.13;99898.31;3121414;28;20449;-71
2022/05/04 07:01:27;;;;;;;5.32;3.42;;;;;;;12.65;61.31;99909.91;3120900;28;20056;-72
2022/05/04 07:03:00;;;;;;;;;;;;;;;12.72;61.26;99905.22;3121983;28;20483;-70
2022/05/04 07:04:32;;;;;;;12.30;4.10;;;;;;;12.75;61.33;99902.47;3121659;28;19921;-71
2022/05/04 07:06:05;;;;;;;8.68;3.53;;;;;;;12.79;60.68;99909.19;3121521;28;20140;-70
2022/05/04 07:07:37;;;;;;;14.27;4.05;;;;;;;12.79;61.23;99892.69;3121414;28;20041;-68
2022/05/04 07:09:09;;;;;;;12.45;4.22;;;;;;;12.88;60.84;99892.19;3121480;28;20104;-69
2022/05/04 07:10:41;;;;;;;8.27;4.20;;;;;;;12.89;60.68;99889.47;3120975;28;20054;-70
2022/05/04 07:12:13;;;;;;;10.15;3.95;;;;;;;12.91;60.25;99887.63;3121300;28;20076;-69
2022/05/04 07:13:45;;;;;;;11.57;4.65;;;;;;;12.86;60.33;99873.13;3121416;28;20108;-69
2022/05/04 07:15:23;;;;;;;7.32;3.72;;;;;;;12.93;60.12;99887.56;3121408;28;20061;-70
2022/05/04 07:16:55;;;;;;;6.65;4.00;;;;;;;12.96;60.39;99888.25;3121737;28;20132;-70
2022/05/04 07:18:28;;;;;;;8.25;4.13;;;;;;;13.02;60.40;99881.00;3121202;28;20577;-69
2022/05/04 07:20:00;;;;;;;7.82;3.63;;;;;;;12.96;60.17;99861.28;3121132;28;20053;-68
2022/05/04 07:21:32;;;;;;;11.93;3.50;;;;;;;13.08;60.29;99878.91;3121559;28;20111;-68
2022/05/04 07:23:03;;;;;;;6.63;3.70;;;;;;;13.14;60.03;99883.78;3121512;28;20531;-69
2022/05/04 07:24:35;;;;;;;8.95;3.80;;;;;;;13.18;59.73;99874.84;3121186;28;20100;-70
2022/05/04 07:26:07;;;;;;;11.93;3.92;;;;;;;13.27;59.92;99878.75;3121145;28;20115;-69
2022/05/04 07:27:39;;;;;;;13.73;3.53;;;;;;;13.31;59.71;99879.44;3120273;28;20060;-64